Terminal Aerodrome Forecast
Issued by NWS Pocatello, ID

Home | Current Version | Previous Version | Text Only | Print | Product List | Glossary On
Versions: 1 2 3 4 5 6 7 8 9 10 11 12 13 14 15 16 17 18 19 20 21 22
000
FTUS45 KPIH 252300
TAFIDA
TAF
KIDA 252327Z 2600/2624 35015G25KT P6SM VCSH SCT015 OVC035
     FM260300 35008KT P6SM BKN035 BKN080
     FM261100 32007KT P6SM SCT008=

USA.gov is the U.S. government's official web portal to all federal, state and local government web resources and services.